sensor_id;sensor_type;location;lat;lon;timestamp;P1;durP1;ratioP1;P2;durP2;ratioP2
75798;SDS011;65035;44.726;37.764;2023-01-08T00:03:08;1.90;;;0.30;;
75798;SDS011;65035;44.726;37.764;2023-01-08T00:04:24;2.72;;;2.03;;
75798;SDS011;65035;44.726;37.764;2023-01-08T00:05:38;2.05;;;0.70;;
75798;SDS011;65035;44.726;37.764;2023-01-08T00:06:53;3.47;;;2.00;;
75798;SDS011;65035;44.726;37.764;2023-01-08T00:08:08;2.03;;;0.60;;
75798;SDS011;65035;44.726;37.764;2023-01-08T00:10:26;2.28;;;0.80;;
75798;SDS011;65035;44.726;37.764;2023-01-08T00:11:41;2.50;;;1.27;;
75798;SDS011;65035;44.726;37.764;2023-01-08T00:12:57;2.03;;;0.75;;
75798;SDS011;65035;44.726;37.764;2023-01-08T00:16:44;1.77;;;0.60;;
75798;SDS011;65035;44.726;37.764;2023-01-08T00:17:59;2.03;;;0.50;;
75798;SDS011;65035;44.726;37.764;2023-01-08T00:19:16;1.67;;;0.52;;
75798;SDS011;65035;44.726;37.764;2023-01-08T00:20:50;2.28;;;0.73;;
75798;SDS011;65035;44.726;37.764;2023-01-08T00:22:05;1.80;;;0.50;;
75798;SDS011;65035;44.726;37.764;2023-01-08T00:23:21;2.95;;;0.85;;
75798;SDS011;65035;44.726;37.764;2023-01-08T00:24:55;2.22;;;0.68;;
75798;SDS011;65035;44.726;37.764;2023-01-08T00:26:11;2.38;;;0.40;;
75798;SDS011;65035;44.726;37.764;2023-01-08T00:28:15;2.58;;;1.15;;
75798;SDS011;65035;44.726;37.764;2023-01-08T00:30:37;2.15;;;0.40;;
75798;SDS011;65035;44.726;37.764;2023-01-08T00:32:43;2.05;;;1.77;;
75798;SDS011;65035;44.726;37.764;2023-01-08T00:33:57;2.80;;;2.38;;
75798;SDS011;65035;44.726;37.764;2023-01-08T00:35:31;2.90;;;2.00;;
75798;SDS011;65035;44.726;37.764;2023-01-08T00:36:46;2.45;;;2.15;;
75798;SDS011;65035;44.726;37.764;2023-01-08T00:38:01;2.15;;;1.95;;
75798;SDS011;65035;44.726;37.764;2023-01-08T00:39:15;2.53;;;2.33;;
75798;SDS011;65035;44.726;37.764;2023-01-08T00:40:49;2.40;;;1.95;;
75798;SDS011;65035;44.726;37.764;2023-01-08T00:42:53;2.47;;;0.35;;
75798;SDS011;65035;44.726;37.764;2023-01-08T00:44:07;2.38;;;0.60;;
75798;SDS011;65035;44.726;37.764;2023-01-08T00:45:21;1.58;;;0.30;;
75798;SDS011;65035;44.726;37.764;2023-01-08T00:46:55;2.80;;;0.63;;
75798;SDS011;65035;44.726;37.764;2023-01-08T00:48:10;2.38;;;0.30;;
75798;SDS011;65035;44.726;37.764;2023-01-08T00:49:24;1.95;;;0.68;;
75798;SDS011;65035;44.726;37.764;2023-01-08T00:51:26;2.22;;;0.50;;
75798;SDS011;65035;44.726;37.764;2023-01-08T00:52:42;3.10;;;2.28;;
75798;SDS011;65035;44.726;37.764;2023-01-08T00:53:55;2.47;;;2.22;;
75798;SDS011;65035;44.726;37.764;2023-01-08T00:55:09;2.45;;;1.58;;
75798;SDS011;65035;44.726;37.764;2023-01-08T00:57:10;2.60;;;0.93;;
75798;SDS011;65035;44.726;37.764;2023-01-08T00:58:44;1.77;;;0.68;;
75798;SDS011;65035;44.726;37.764;2023-01-08T01:00:45;1.38;;;0.50;;
75798;SDS011;65035;44.726;37.764;2023-01-08T01:02:00;1.58;;;0.50;;
75798;SDS011;65035;44.726;37.764;2023-01-08T01:04:10;2.55;;;0.70;;
75798;SDS011;65035;44.726;37.764;2023-01-08T01:05:23;1.90;;;0.55;;
75798;SDS011;65035;44.726;37.764;2023-01-08T01:06:37;1.95;;;0.88;;
75798;SDS011;65035;44.726;37.764;2023-01-08T01:07:51;2.17;;;0.60;;
75798;SDS011;65035;44.726;37.764;2023-01-08T01:11:21;2.53;;;1.73;;
75798;SDS011;65035;44.726;37.764;2023-01-08T01:19:17;2.25;;;1.52;;
75798;SDS011;65035;44.726;37.764;2023-01-08T01:20:51;1.83;;;0.50;;
75798;SDS011;65035;44.726;37.764;2023-01-08T01:22:05;2.30;;;1.50;;
75798;SDS011;65035;44.726;37.764;2023-01-08T01:23:19;2.38;;;0.30;;
75798;SDS011;65035;44.726;37.764;2023-01-08T01:24:35;2.03;;;1.35;;
75798;SDS011;65035;44.726;37.764;2023-01-08T01:25:54;2.47;;;1.95;;
75798;SDS011;65035;44.726;37.764;2023-01-08T01:27:27;2.40;;;1.83;;
75798;SDS011;65035;44.726;37.764;2023-01-08T01:28:41;1.95;;;1.40;;
75798;SDS011;65035;44.726;37.764;2023-01-08T01:30:43;2.08;;;0.50;;
75798;SDS011;65035;44.726;37.764;2023-01-08T01:31:58;2.40;;;0.75;;
75798;SDS011;65035;44.726;37.764;2023-01-08T01:33:32;2.33;;;0.68;;
75798;SDS011;65035;44.726;37.764;2023-01-08T01:35:06;2.08;;;1.15;;
75798;SDS011;65035;44.726;37.764;2023-01-08T01:36:21;1.88;;;0.70;;
75798;SDS011;65035;44.726;37.764;2023-01-08T01:37:42;2.17;;;0.90;;
75798;SDS011;65035;44.726;37.764;2023-01-08T01:38:56;1.83;;;0.80;;
75798;SDS011;65035;44.726;37.764;2023-01-08T01:40:12;2.42;;;0.90;;
75798;SDS011;65035;44.726;37.764;2023-01-08T01:43:49;2.25;;;0.57;;
75798;SDS011;65035;44.726;37.764;2023-01-08T01:45:24;2.03;;;0.47;;
75798;SDS011;65035;44.726;37.764;2023-01-08T01:46:42;1.73;;;1.02;;
75798;SDS011;65035;44.726;37.764;2023-01-08T01:48:16;1.77;;;0.60;;
75798;SDS011;65035;44.726;37.764;2023-01-08T01:49:30;2.47;;;0.68;;
75798;SDS011;65035;44.726;37.764;2023-01-08T01:50:48;1.67;;;0.38;;
75798;SDS011;65035;44.726;37.764;2023-01-08T02:00:31;3.00;;;2.00;;
75798;SDS011;65035;44.726;37.764;2023-01-08T02:04:39;2.47;;;0.50;;
75798;SDS011;65035;44.726;37.764;2023-01-08T02:06:57;2.10;;;0.55;;
75798;SDS011;65035;44.726;37.764;2023-01-08T02:09:00;3.05;;;1.50;;
75798;SDS011;65035;44.726;37.764;2023-01-08T02:15:50;1.92;;;1.00;;
75798;SDS011;65035;44.726;37.764;2023-01-08T02:19:24;1.30;;;0.77;;
75798;SDS011;65035;44.726;37.764;2023-01-08T02:21:51;2.17;;;0.82;;
75798;SDS011;65035;44.726;37.764;2023-01-08T02:27:46;2.60;;;0.30;;
75798;SDS011;65035;44.726;37.764;2023-01-08T02:29:10;1.83;;;1.20;;
75798;SDS011;65035;44.726;37.764;2023-01-08T02:32:05;2.45;;;0.60;;
75798;SDS011;65035;44.726;37.764;2023-01-08T02:33:39;1.65;;;1.25;;
75798;SDS011;65035;44.726;37.764;2023-01-08T02:34:54;1.98;;;0.57;;
75798;SDS011;65035;44.726;37.764;2023-01-08T02:44:01;1.60;;;0.60;;
75798;SDS011;65035;44.726;37.764;2023-01-08T02:47:53;2.05;;;1.50;;
75798;SDS011;65035;44.726;37.764;2023-01-08T02:49:09;1.95;;;0.20;;
75798;SDS011;65035;44.726;37.764;2023-01-08T02:50:34;1.90;;;0.57;;
75798;SDS011;65035;44.726;37.764;2023-01-08T02:51:59;2.17;;;1.85;;
75798;SDS011;65035;44.726;37.764;2023-01-08T02:53:17;1.85;;;0.65;;
75798;SDS011;65035;44.726;37.764;2023-01-08T02:54:38;2.00;;;0.43;;
75798;SDS011;65035;44.726;37.764;2023-01-08T02:55:56;2.60;;;0.50;;
75798;SDS011;65035;44.726;37.764;2023-01-08T02:57:17;2.60;;;2.10;;
75798;SDS011;65035;44.726;37.764;2023-01-08T02:58:34;3.05;;;2.47;;
75798;SDS011;65035;44.726;37.764;2023-01-08T03:00:09;1.90;;;0.60;;
75798;SDS011;65035;44.726;37.764;2023-01-08T03:01:44;2.38;;;2.08;;
75798;SDS011;65035;44.726;37.764;2023-01-08T03:03:04;2.78;;;2.10;;
75798;SDS011;65035;44.726;37.764;2023-01-08T03:04:26;2.40;;;1.92;;
75798;SDS011;65035;44.726;37.764;2023-01-08T03:06:09;3.42;;;2.15;;
75798;SDS011;65035;44.726;37.764;2023-01-08T03:07:28;1.60;;;0.70;;
75798;SDS011;65035;44.726;37.764;2023-01-08T03:09:02;1.60;;;0.20;;
75798;SDS011;65035;44.726;37.764;2023-01-08T03:10:19;2.38;;;2.17;;
75798;SDS011;65035;44.726;37.764;2023-01-08T03:11:37;1.60;;;0.70;;
75798;SDS011;65035;44.726;37.764;2023-01-08T03:13:33;2.08;;;0.40;;
75798;SDS011;65035;44.726;37.764;2023-01-08T03:16:07;1.63;;;0.70;;
75798;SDS011;65035;44.726;37.764;2023-01-08T03:17:29;1.85;;;0.55;;
75798;SDS011;65035;44.726;37.764;2023-01-08T03:20:29;1.88;;;1.00;;
75798;SDS011;65035;44.726;37.764;2023-01-08T03:21:45;2.40;;;2.20;;
75798;SDS011;65035;44.726;37.764;2023-01-08T03:23:21;1.65;;;0.40;;
75798;SDS011;65035;44.726;37.764;2023-01-08T03:24:37;1.73;;;0.85;;
75798;SDS011;65035;44.726;37.764;2023-01-08T03:28:22;2.55;;;0.47;;
75798;SDS011;65035;44.726;37.764;2023-01-08T03:29:43;1.63;;;0.40;;
75798;SDS011;65035;44.726;37.764;2023-01-08T03:31:02;1.63;;;0.40;;
75798;SDS011;65035;44.726;37.764;2023-01-08T03:32:16;1.83;;;0.38;;
75798;SDS011;65035;44.726;37.764;2023-01-08T03:33:33;2.10;;;1.05;;
75798;SDS011;65035;44.726;37.764;2023-01-08T03:35:37;1.90;;;0.32;;
75798;SDS011;65035;44.726;37.764;2023-01-08T03:36:55;1.48;;;0.30;;
75798;SDS011;65035;44.726;37.764;2023-01-08T03:38:21;1.80;;;0.90;;
75798;SDS011;65035;44.726;37.764;2023-01-08T03:39:40;1.60;;;0.30;;
75798;SDS011;65035;44.726;37.764;2023-01-08T03:41:00;1.63;;;0.50;;
75798;SDS011;65035;44.726;37.764;2023-01-08T03:42:20;2.22;;;0.75;;
75798;SDS011;65035;44.726;37.764;2023-01-08T03:43:54;1.67;;;0.80;;
75798;SDS011;65035;44.726;37.764;2023-01-08T03:46:21;2.00;;;1.33;;
75798;SDS011;65035;44.726;37.764;2023-01-08T03:48:01;4.13;;;1.65;;
75798;SDS011;65035;44.726;37.764;2023-01-08T03:50:59;3.78;;;1.80;;
75798;SDS011;65035;44.726;37.764;2023-01-08T03:52:33;3.13;;;2.00;;
75798;SDS011;65035;44.726;37.764;2023-01-08T03:53:48;2.40;;;2.17;;
75798;SDS011;65035;44.726;37.764;2023-01-08T03:55:06;2.20;;;1.70;;
75798;SDS011;65035;44.726;37.764;2023-01-08T03:56:40;2.47;;;1.88;;
75798;SDS011;65035;44.726;37.764;2023-01-08T03:57:54;1.70;;;0.60;;
75798;SDS011;65035;44.726;37.764;2023-01-08T03:59:12;2.28;;;1.85;;
75798;SDS011;65035;44.726;37.764;2023-01-08T04:01:23;2.97;;;0.80;;
75798;SDS011;65035;44.726;37.764;2023-01-08T04:02:57;3.15;;;1.20;;
75798;SDS011;65035;44.726;37.764;2023-01-08T04:04:14;2.25;;;0.90;;
75798;SDS011;65035;44.726;37.764;2023-01-08T04:05:29;3.30;;;1.05;;
75798;SDS011;65035;44.726;37.764;2023-01-08T04:06:48;2.25;;;0.65;;
75798;SDS011;65035;44.726;37.764;2023-01-08T04:08:04;3.10;;;0.95;;
75798;SDS011;65035;44.726;37.764;2023-01-08T04:09:18;2.55;;;1.00;;
75798;SDS011;65035;44.726;37.764;2023-01-08T04:11:19;3.30;;;2.45;;
75798;SDS011;65035;44.726;37.764;2023-01-08T04:14:33;2.92;;;1.33;;
75798;SDS011;65035;44.726;37.764;2023-01-08T04:16:06;2.50;;;1.50;;
75798;SDS011;65035;44.726;37.764;2023-01-08T04:20:00;4.10;;;1.10;;
75798;SDS011;65035;44.726;37.764;2023-01-08T04:21:14;3.63;;;1.23;;
75798;SDS011;65035;44.726;37.764;2023-01-08T04:22:28;3.17;;;0.93;;
75798;SDS011;65035;44.726;37.764;2023-01-08T04:24:30;2.58;;;1.08;;
75798;SDS011;65035;44.726;37.764;2023-01-08T04:26:06;3.17;;;0.75;;
75798;SDS011;65035;44.726;37.764;2023-01-08T04:28:54;4.25;;;2.65;;
75798;SDS011;65035;44.726;37.764;2023-01-08T04:30:09;3.03;;;2.63;;
75798;SDS011;65035;44.726;37.764;2023-01-08T04:31:23;3.67;;;2.67;;
75798;SDS011;65035;44.726;37.764;2023-01-08T04:35:21;3.38;;;2.28;;
75798;SDS011;65035;44.726;37.764;2023-01-08T04:37:25;2.63;;;0.88;;
75798;SDS011;65035;44.726;37.764;2023-01-08T04:38:59;3.10;;;1.10;;
75798;SDS011;65035;44.726;37.764;2023-01-08T04:40:19;3.55;;;1.52;;
75798;SDS011;65035;44.726;37.764;2023-01-08T04:41:38;2.50;;;1.17;;
75798;SDS011;65035;44.726;37.764;2023-01-08T04:42:53;3.33;;;1.17;;
75798;SDS011;65035;44.726;37.764;2023-01-08T04:44:08;2.42;;;0.80;;
75798;SDS011;65035;44.726;37.764;2023-01-08T04:45:21;3.75;;;1.50;;
75798;SDS011;65035;44.726;37.764;2023-01-08T04:46:36;2.72;;;1.30;;
75798;SDS011;65035;44.726;37.764;2023-01-08T04:47:56;2.65;;;1.25;;
75798;SDS011;65035;44.726;37.764;2023-01-08T04:49:11;3.13;;;1.23;;
75798;SDS011;65035;44.726;37.764;2023-01-08T04:50:45;4.07;;;1.42;;
75798;SDS011;65035;44.726;37.764;2023-01-08T04:52:19;2.75;;;1.13;;
75798;SDS011;65035;44.726;37.764;2023-01-08T04:53:34;3.90;;;1.10;;
75798;SDS011;65035;44.726;37.764;2023-01-08T04:54:50;3.15;;;1.25;;
75798;SDS011;65035;44.726;37.764;2023-01-08T04:56:08;2.50;;;0.77;;
75798;SDS011;65035;44.726;37.764;2023-01-08T04:57:24;2.90;;;1.15;;
75798;SDS011;65035;44.726;37.764;2023-01-08T04:58:39;3.53;;;1.40;;
75798;SDS011;65035;44.726;37.764;2023-01-08T05:00:13;3.85;;;1.92;;
75798;SDS011;65035;44.726;37.764;2023-01-08T05:03:29;3.10;;;1.15;;
75798;SDS011;65035;44.726;37.764;2023-01-08T05:09:29;2.45;;;1.30;;
75798;SDS011;65035;44.726;37.764;2023-01-08T05:11:03;2.83;;;0.80;;
75798;SDS011;65035;44.726;37.764;2023-01-08T05:13:20;3.47;;;3.15;;
75798;SDS011;65035;44.726;37.764;2023-01-08T05:17:14;3.25;;;1.13;;
75798;SDS011;65035;44.726;37.764;2023-01-08T05:18:28;2.35;;;1.20;;
75798;SDS011;65035;44.726;37.764;2023-01-08T05:19:43;2.65;;;0.93;;
75798;SDS011;65035;44.726;37.764;2023-01-08T05:21:16;3.53;;;1.15;;
75798;SDS011;65035;44.726;37.764;2023-01-08T05:23:20;3.03;;;1.63;;
75798;SDS011;65035;44.726;37.764;2023-01-08T05:24:34;2.97;;;0.93;;
75798;SDS011;65035;44.726;37.764;2023-01-08T05:25:49;4.80;;;1.38;;
75798;SDS011;65035;44.726;37.764;2023-01-08T05:28:10;3.25;;;1.20;;
75798;SDS011;65035;44.726;37.764;2023-01-08T05:29:44;3.28;;;0.85;;
75798;SDS011;65035;44.726;37.764;2023-01-08T05:31:18;3.22;;;0.95;;
75798;SDS011;65035;44.726;37.764;2023-01-08T05:33:20;3.35;;;1.27;;
75798;SDS011;65035;44.726;37.764;2023-01-08T05:34:39;2.22;;;0.95;;
75798;SDS011;65035;44.726;37.764;2023-01-08T05:35:53;3.45;;;1.23;;
75798;SDS011;65035;44.726;37.764;2023-01-08T05:38:04;3.70;;;1.25;;
75798;SDS011;65035;44.726;37.764;2023-01-08T05:39:19;2.85;;;0.90;;
75798;SDS011;65035;44.726;37.764;2023-01-08T05:40:53;2.38;;;1.08;;
75798;SDS011;65035;44.726;37.764;2023-01-08T05:42:07;2.70;;;0.80;;
75798;SDS011;65035;44.726;37.764;2023-01-08T05:43:20;4.32;;;2.53;;
75798;SDS011;65035;44.726;37.764;2023-01-08T05:44:35;3.67;;;1.33;;
75798;SDS011;65035;44.726;37.764;2023-01-08T05:46:08;4.43;;;1.45;;
75798;SDS011;65035;44.726;37.764;2023-01-08T05:47:42;3.15;;;1.10;;
75798;SDS011;65035;44.726;37.764;2023-01-08T05:49:15;3.38;;;0.80;;
75798;SDS011;65035;44.726;37.764;2023-01-08T05:50:30;3.17;;;2.80;;
75798;SDS011;65035;44.726;37.764;2023-01-08T05:51:44;2.50;;;0.80;;
75798;SDS011;65035;44.726;37.764;2023-01-08T05:52:58;3.60;;;2.55;;
75798;SDS011;65035;44.726;37.764;2023-01-08T05:54:12;3.45;;;2.20;;
75798;SDS011;65035;44.726;37.764;2023-01-08T05:56:14;3.15;;;2.85;;
75798;SDS011;65035;44.726;37.764;2023-01-08T05:57:48;3.70;;;3.13;;
75798;SDS011;65035;44.726;37.764;2023-01-08T05:59:02;3.45;;;1.98;;
75798;SDS011;65035;44.726;37.764;2023-01-08T06:00:16;4.85;;;2.47;;
75798;SDS011;65035;44.726;37.764;2023-01-08T06:01:32;4.05;;;2.58;;
75798;SDS011;65035;44.726;37.764;2023-01-08T06:03:35;1.95;;;0.75;;
75798;SDS011;65035;44.726;37.764;2023-01-08T06:04:50;3.22;;;1.65;;
75798;SDS011;65035;44.726;37.764;2023-01-08T06:07:19;2.50;;;0.90;;
75798;SDS011;65035;44.726;37.764;2023-01-08T06:08:33;2.55;;;0.95;;
75798;SDS011;65035;44.726;37.764;2023-01-08T06:09:49;3.72;;;1.13;;
75798;SDS011;65035;44.726;37.764;2023-01-08T06:11:05;2.83;;;1.25;;
75798;SDS011;65035;44.726;37.764;2023-01-08T06:13:35;2.83;;;1.05;;
75798;SDS011;65035;44.726;37.764;2023-01-08T06:15:38;2.75;;;0.93;;
75798;SDS011;65035;44.726;37.764;2023-01-08T06:17:40;3.22;;;1.05;;
75798;SDS011;65035;44.726;37.764;2023-01-08T06:21:33;4.18;;;1.15;;
75798;SDS011;65035;44.726;37.764;2023-01-08T06:22:47;3.50;;;1.58;;
75798;SDS011;65035;44.726;37.764;2023-01-08T06:26:17;1.92;;;0.60;;
75798;SDS011;65035;44.726;37.764;2023-01-08T06:27:30;2.72;;;0.95;;
75798;SDS011;65035;44.726;37.764;2023-01-08T06:29:04;4.80;;;0.90;;
75798;SDS011;65035;44.726;37.764;2023-01-08T06:30:18;4.07;;;1.02;;
75798;SDS011;65035;44.726;37.764;2023-01-08T06:31:52;4.35;;;1.30;;
75798;SDS011;65035;44.726;37.764;2023-01-08T06:34:01;4.57;;;2.85;;
75798;SDS011;65035;44.726;37.764;2023-01-08T06:35:15;3.80;;;2.88;;
75798;SDS011;65035;44.726;37.764;2023-01-08T06:36:31;3.47;;;2.08;;
75798;SDS011;65035;44.726;37.764;2023-01-08T06:38:04;4.18;;;2.65;;
75798;SDS011;65035;44.726;37.764;2023-01-08T06:39:18;4.32;;;2.75;;
75798;SDS011;65035;44.726;37.764;2023-01-08T06:40:32;3.55;;;2.40;;
75798;SDS011;65035;44.726;37.764;2023-01-08T06:42:06;4.78;;;3.03;;
75798;SDS011;65035;44.726;37.764;2023-01-08T06:43:20;5.30;;;2.83;;
75798;SDS011;65035;44.726;37.764;2023-01-08T06:44:35;4.07;;;2.38;;
75798;SDS011;65035;44.726;37.764;2023-01-08T06:45:53;2.78;;;2.58;;
75798;SDS011;65035;44.726;37.764;2023-01-08T06:47:08;4.13;;;2.75;;
75798;SDS011;65035;44.726;37.764;2023-01-08T06:50:32;3.20;;;0.90;;
75798;SDS011;65035;44.726;37.764;2023-01-08T06:51:48;3.03;;;0.65;;
75798;SDS011;65035;44.726;37.764;2023-01-08T06:53:04;3.03;;;0.90;;
75798;SDS011;65035;44.726;37.764;2023-01-08T06:54:38;3.28;;;1.20;;
75798;SDS011;65035;44.726;37.764;2023-01-08T06:55:53;3.28;;;1.02;;
75798;SDS011;65035;44.726;37.764;2023-01-08T06:57:09;3.88;;;1.23;;
75798;SDS011;65035;44.726;37.764;2023-01-08T06:58:25;2.58;;;0.93;;
75798;SDS011;65035;44.726;37.764;2023-01-08T06:59:38;2.20;;;0.90;;
75798;SDS011;65035;44.726;37.764;2023-01-08T07:00:53;3.72;;;1.00;;
75798;SDS011;65035;44.726;37.764;2023-01-08T07:02:27;3.75;;;0.90;;
75798;SDS011;65035;44.726;37.764;2023-01-08T07:04:00;3.28;;;0.70;;
75798;SDS011;65035;44.726;37.764;2023-01-08T07:05:34;1.90;;;0.80;;
75798;SDS011;65035;44.726;37.764;2023-01-08T07:06:48;6.35;;;3.78;;
75798;SDS011;65035;44.726;37.764;2023-01-08T07:08:01;11.48;;;10.18;;
75798;SDS011;65035;44.726;37.764;2023-01-08T07:09:16;14.80;;;13.32;;
75798;SDS011;65035;44.726;37.764;2023-01-08T07:10:32;11.93;;;10.70;;
75798;SDS011;65035;44.726;37.764;2023-01-08T07:11:47;11.32;;;9.18;;
75798;SDS011;65035;44.726;37.764;2023-01-08T07:13:03;10.70;;;8.90;;
75798;SDS011;65035;44.726;37.764;2023-01-08T07:14:17;8.40;;;7.30;;
75798;SDS011;65035;44.726;37.764;2023-01-08T07:15:31;7.97;;;6.45;;
75798;SDS011;65035;44.726;37.764;2023-01-08T07:16:46;7.65;;;4.53;;
75798;SDS011;65035;44.726;37.764;2023-01-08T07:18:00;7.30;;;4.60;;
75798;SDS011;65035;44.726;37.764;2023-01-08T07:20:06;4.60;;;2.05;;
75798;SDS011;65035;44.726;37.764;2023-01-08T07:21:41;4.40;;;2.97;;
75798;SDS011;65035;44.726;37.764;2023-01-08T07:22:59;4.47;;;3.22;;
75798;SDS011;65035;44.726;37.764;2023-01-08T07:24:34;4.78;;;2.53;;
75798;SDS011;65035;44.726;37.764;2023-01-08T07:26:55;7.03;;;2.67;;
75798;SDS011;65035;44.726;37.764;2023-01-08T07:28:10;5.43;;;2.42;;
75798;SDS011;65035;44.726;37.764;2023-01-08T07:29:28;3.50;;;2.25;;
75798;SDS011;65035;44.726;37.764;2023-01-08T07:31:03;4.38;;;1.98;;
75798;SDS011;65035;44.726;37.764;2023-01-08T07:32:19;4.57;;;1.70;;
75798;SDS011;65035;44.726;37.764;2023-01-08T07:33:33;2.92;;;1.58;;
75798;SDS011;65035;44.726;37.764;2023-01-08T07:34:48;5.35;;;2.25;;
75798;SDS011;65035;44.726;37.764;2023-01-08T07:36:06;16.77;;;4.57;;
75798;SDS011;65035;44.726;37.764;2023-01-08T07:37:21;16.98;;;4.00;;
75798;SDS011;65035;44.726;37.764;2023-01-08T07:38:47;9.77;;;3.15;;
75798;SDS011;65035;44.726;37.764;2023-01-08T07:40:09;15.07;;;3.72;;
75798;SDS011;65035;44.726;37.764;2023-01-08T07:41:25;13.00;;;2.95;;
75798;SDS011;65035;44.726;37.764;2023-01-08T07:42:59;12.10;;;3.78;;
75798;SDS011;65035;44.726;37.764;2023-01-08T07:44:14;10.65;;;2.78;;
75798;SDS011;65035;44.726;37.764;2023-01-08T07:45:28;9.43;;;2.40;;
75798;SDS011;65035;44.726;37.764;2023-01-08T07:47:02;11.63;;;2.80;;
75798;SDS011;65035;44.726;37.764;2023-01-08T07:48:16;10.00;;;2.40;;
75798;SDS011;65035;44.726;37.764;2023-01-08T07:49:31;9.00;;;2.30;;
75798;SDS011;65035;44.726;37.764;2023-01-08T07:50:46;11.05;;;3.28;;
75798;SDS011;65035;44.726;37.764;2023-01-08T07:52:10;10.77;;;2.42;;
75798;SDS011;65035;44.726;37.764;2023-01-08T07:53:24;8.25;;;2.13;;
75798;SDS011;65035;44.726;37.764;2023-01-08T07:54:57;8.30;;;2.55;;
75798;SDS011;65035;44.726;37.764;2023-01-08T07:56:22;8.55;;;2.60;;
75798;SDS011;65035;44.726;37.764;2023-01-08T07:57:37;10.18;;;2.33;;
75798;SDS011;65035;44.726;37.764;2023-01-08T07:58:52;8.32;;;1.90;;
75798;SDS011;65035;44.726;37.764;2023-01-08T08:00:26;8.18;;;1.85;;
75798;SDS011;65035;44.726;37.764;2023-01-08T08:01:41;6.70;;;1.65;;
75798;SDS011;65035;44.726;37.764;2023-01-08T08:03:02;5.97;;;2.03;;
75798;SDS011;65035;44.726;37.764;2023-01-08T08:04:21;7.28;;;2.33;;
75798;SDS011;65035;44.726;37.764;2023-01-08T08:05:37;8.27;;;1.65;;
75798;SDS011;65035;44.726;37.764;2023-01-08T08:06:53;6.90;;;1.73;;
75798;SDS011;65035;44.726;37.764;2023-01-08T08:08:10;10.27;;;1.77;;
75798;SDS011;65035;44.726;37.764;2023-01-08T08:09:25;4.93;;;1.90;;
75798;SDS011;65035;44.726;37.764;2023-01-08T08:10:39;6.68;;;1.75;;
75798;SDS011;65035;44.726;37.764;2023-01-08T08:11:54;4.45;;;0.98;;
75798;SDS011;65035;44.726;37.764;2023-01-08T08:13:27;7.82;;;1.40;;
75798;SDS011;65035;44.726;37.764;2023-01-08T08:14:41;8.07;;;2.20;;
75798;SDS011;65035;44.726;37.764;2023-01-08T08:15:59;5.82;;;1.70;;
75798;SDS011;65035;44.726;37.764;2023-01-08T08:17:15;4.38;;;0.93;;
75798;SDS011;65035;44.726;37.764;2023-01-08T08:18:30;6.38;;;1.48;;
75798;SDS011;65035;44.726;37.764;2023-01-08T08:19:44;5.63;;;1.65;;
75798;SDS011;65035;44.726;37.764;2023-01-08T08:20:57;5.90;;;1.52;;
75798;SDS011;65035;44.726;37.764;2023-01-08T08:22:12;5.32;;;1.35;;
75798;SDS011;65035;44.726;37.764;2023-01-08T08:23:27;5.55;;;1.30;;
75798;SDS011;65035;44.726;37.764;2023-01-08T08:24:42;3.97;;;1.23;;
75798;SDS011;65035;44.726;37.764;2023-01-08T08:25:57;4.63;;;1.35;;
75798;SDS011;65035;44.726;37.764;2023-01-08T08:27:12;7.18;;;1.92;;
75798;SDS011;65035;44.726;37.764;2023-01-08T08:28:27;4.57;;;1.35;;
75798;SDS011;65035;44.726;37.764;2023-01-08T08:29:41;7.18;;;1.80;;
75798;SDS011;65035;44.726;37.764;2023-01-08T08:31:15;6.47;;;2.00;;
75798;SDS011;65035;44.726;37.764;2023-01-08T08:32:30;3.45;;;1.60;;
75798;SDS011;65035;44.726;37.764;2023-01-08T08:33:44;6.20;;;2.08;;
75798;SDS011;65035;44.726;37.764;2023-01-08T08:35:00;7.07;;;1.85;;
75798;SDS011;65035;44.726;37.764;2023-01-08T08:36:15;5.50;;;0.85;;
75798;SDS011;65035;44.726;37.764;2023-01-08T08:37:33;6.57;;;1.92;;
75798;SDS011;65035;44.726;37.764;2023-01-08T08:38:48;5.28;;;1.45;;
75798;SDS011;65035;44.726;37.764;2023-01-08T08:40:01;5.72;;;1.50;;
75798;SDS011;65035;44.726;37.764;2023-01-08T08:41:16;5.55;;;1.30;;
75798;SDS011;65035;44.726;37.764;2023-01-08T08:42:31;5.03;;;1.58;;
75798;SDS011;65035;44.726;37.764;2023-01-08T08:43:46;4.93;;;1.13;;
75798;SDS011;65035;44.726;37.764;2023-01-08T08:45:05;6.15;;;2.00;;
75798;SDS011;65035;44.726;37.764;2023-01-08T08:46:18;3.88;;;1.33;;
75798;SDS011;65035;44.726;37.764;2023-01-08T08:47:33;4.63;;;2.03;;
75798;SDS011;65035;44.726;37.764;2023-01-08T08:48:47;5.03;;;1.35;;
75798;SDS011;65035;44.726;37.764;2023-01-08T08:50:21;6.60;;;1.50;;
75798;SDS011;65035;44.726;37.764;2023-01-08T08:51:36;4.13;;;1.60;;
75798;SDS011;65035;44.726;37.764;2023-01-08T08:53:10;4.25;;;1.63;;
75798;SDS011;65035;44.726;37.764;2023-01-08T08:54:24;4.88;;;2.20;;
75798;SDS011;65035;44.726;37.764;2023-01-08T08:55:38;4.47;;;1.63;;
75798;SDS011;65035;44.726;37.764;2023-01-08T08:57:12;4.50;;;1.13;;
75798;SDS011;65035;44.726;37.764;2023-01-08T08:58:26;6.88;;;2.28;;
75798;SDS011;65035;44.726;37.764;2023-01-08T08:59:41;3.45;;;1.13;;
75798;SDS011;65035;44.726;37.764;2023-01-08T09:01:15;4.43;;;1.42;;
75798;SDS011;65035;44.726;37.764;2023-01-08T09:02:28;5.45;;;2.00;;
75798;SDS011;65035;44.726;37.764;2023-01-08T09:03:43;5.15;;;1.27;;
75798;SDS011;65035;44.726;37.764;2023-01-08T09:04:57;3.88;;;1.90;;
75798;SDS011;65035;44.726;37.764;2023-01-08T09:06:16;5.88;;;1.27;;
75798;SDS011;65035;44.726;37.764;2023-01-08T09:07:31;3.78;;;1.40;;
75798;SDS011;65035;44.726;37.764;2023-01-08T09:08:48;4.20;;;1.42;;
75798;SDS011;65035;44.726;37.764;2023-01-08T09:10:03;4.93;;;2.03;;
75798;SDS011;65035;44.726;37.764;2023-01-08T09:11:37;3.78;;;1.45;;
75798;SDS011;65035;44.726;37.764;2023-01-08T09:12:54;4.25;;;1.20;;
75798;SDS011;65035;44.726;37.764;2023-01-08T09:14:09;3.00;;;1.42;;
75798;SDS011;65035;44.726;37.764;2023-01-08T09:15:25;5.55;;;1.77;;
75798;SDS011;65035;44.726;37.764;2023-01-08T09:16:39;4.05;;;1.70;;
75798;SDS011;65035;44.726;37.764;2023-01-08T09:18:00;4.68;;;1.23;;
75798;SDS011;65035;44.726;37.764;2023-01-08T09:19:15;6.90;;;2.30;;
75798;SDS011;65035;44.726;37.764;2023-01-08T09:20:30;4.57;;;1.52;;
75798;SDS011;65035;44.726;37.764;2023-01-08T09:21:45;7.38;;;2.10;;
75798;SDS011;65035;44.726;37.764;2023-01-08T09:23:01;7.20;;;2.10;;
75798;SDS011;65035;44.726;37.764;2023-01-08T09:24:35;5.85;;;1.63;;
75798;SDS011;65035;44.726;37.764;2023-01-08T09:26:09;8.45;;;1.92;;
75798;SDS011;65035;44.726;37.764;2023-01-08T09:29:10;5.60;;;2.45;;
75798;SDS011;65035;44.726;37.764;2023-01-08T09:31:20;8.18;;;2.80;;
75798;SDS011;65035;44.726;37.764;2023-01-08T09:33:23;8.25;;;2.92;;
75798;SDS011;65035;44.726;37.764;2023-01-08T09:34:37;7.63;;;4.57;;
75798;SDS011;65035;44.726;37.764;2023-01-08T09:35:52;7.22;;;3.50;;
75798;SDS011;65035;44.726;37.764;2023-01-08T09:38:44;5.80;;;2.47;;
75798;SDS011;65035;44.726;37.764;2023-01-08T09:39:59;6.88;;;3.13;;
75798;SDS011;65035;44.726;37.764;2023-01-08T09:41:18;6.30;;;2.88;;
75798;SDS011;65035;44.726;37.764;2023-01-08T09:42:41;8.75;;;3.28;;
75798;SDS011;65035;44.726;37.764;2023-01-08T09:43:57;6.68;;;2.97;;
75798;SDS011;65035;44.726;37.764;2023-01-08T09:45:15;8.00;;;3.20;;
75798;SDS011;65035;44.726;37.764;2023-01-08T09:46:57;8.00;;;2.92;;
75798;SDS011;65035;44.726;37.764;2023-01-08T09:48:14;7.93;;;3.38;;
75798;SDS011;65035;44.726;37.764;2023-01-08T09:49:41;8.10;;;3.42;;